createdAt,value
2023-03-26T00:00:52.106Z,998.11
2023-03-26T00:01:52.100Z,998.10
2023-03-26T00:02:52.100Z,998.10
2023-03-26T00:03:52.084Z,998.11
2023-03-26T00:04:52.065Z,998.11
2023-03-26T00:05:52.296Z,998.12
2023-03-26T00:06:52.033Z,998.14
2023-03-26T00:07:52.037Z,998.14
2023-03-26T00:08:52.041Z,998.19
2023-03-26T00:09:51.997Z,998.18
2023-03-26T00:10:52.025Z,998.19
2023-03-26T00:11:51.953Z,998.19
2023-03-26T00:12:51.974Z,998.17
2023-03-26T00:13:51.983Z,998.21
2023-03-26T00:14:51.982Z,998.18
2023-03-26T00:15:51.951Z,998.15
2023-03-26T00:16:51.970Z,998.17
2023-03-26T00:17:51.992Z,998.21
2023-03-26T00:18:51.912Z,998.22
2023-03-26T00:19:51.911Z,998.22
2023-03-26T00:20:51.897Z,998.25
2023-03-26T00:21:51.844Z,998.23
2023-03-26T00:22:51.886Z,998.23
2023-03-26T00:23:51.823Z,998.21
2023-03-26T00:24:51.841Z,998.22
2023-03-26T00:25:51.966Z,998.23
2023-03-26T00:26:51.839Z,998.21
2023-03-26T00:27:51.784Z,998.20
2023-03-26T00:28:51.876Z,998.20
2023-03-26T00:29:51.763Z,998.17
2023-03-26T00:30:51.800Z,998.18
2023-03-26T00:31:51.788Z,998.16
2023-03-26T00:32:53.768Z,998.13
2023-03-26T00:33:51.741Z,998.14
2023-03-26T00:34:51.790Z,998.15
2023-03-26T00:35:51.920Z,998.16
2023-03-26T00:36:51.728Z,998.17
2023-03-26T00:37:51.706Z,998.16
2023-03-26T00:38:51.716Z,998.19
2023-03-26T00:39:51.654Z,998.19
2023-03-26T00:40:51.687Z,998.24
2023-03-26T00:41:51.656Z,998.20
2023-03-26T00:42:51.660Z,998.21
2023-03-26T00:43:51.684Z,998.21
2023-03-26T00:44:51.650Z,998.21
2023-03-26T00:45:51.706Z,998.24
2023-03-26T00:46:51.615Z,998.23
2023-03-26T00:47:51.656Z,998.22
2023-03-26T00:48:51.622Z,998.25
2023-03-26T00:49:51.629Z,998.25
2023-03-26T00:50:51.597Z,998.28
2023-03-26T00:51:51.528Z,998.26
2023-03-26T00:52:51.551Z,998.24
2023-03-26T00:53:51.517Z,998.27
2023-03-26T00:54:51.532Z,998.25
2023-03-26T00:55:51.585Z,998.27
2023-03-26T00:56:51.533Z,998.27
2023-03-26T00:57:51.462Z,998.25
2023-03-26T00:58:51.512Z,998.23
2023-03-26T00:59:51.464Z,998.24
2023-03-26T01:00:51.465Z,998.21
2023-03-26T01:01:51.513Z,998.19
2023-03-26T01:02:51.555Z,998.19
2023-03-26T01:04:05.238Z,998.16
2023-03-26T01:04:51.455Z,998.13
2023-03-26T01:05:51.597Z,998.13
2023-03-26T01:06:51.397Z,998.13
2023-03-26T01:07:51.350Z,998.12
2023-03-26T01:08:51.356Z,998.10
2023-03-26T01:09:51.357Z,998.08
2023-03-26T01:10:51.357Z,998.07
2023-03-26T01:11:51.319Z,998.04
2023-03-26T01:12:51.331Z,998.04
2023-03-26T01:13:51.304Z,997.98
2023-03-26T01:14:52.075Z,997.97
2023-03-26T01:15:51.421Z,997.95
2023-03-26T01:16:51.306Z,997.96
2023-03-26T01:17:51.349Z,997.92
2023-03-26T01:18:51.277Z,997.91
2023-03-26T01:19:51.249Z,997.90
2023-03-26T01:20:51.235Z,997.89
2023-03-26T01:21:51.214Z,997.89
2023-03-26T01:22:51.217Z,997.91
2023-03-26T01:23:51.215Z,997.89
2023-03-26T01:24:51.187Z,997.87
2023-03-26T01:25:51.216Z,997.86
2023-03-26T01:26:51.172Z,997.83
2023-03-26T01:27:51.137Z,997.84
2023-03-26T01:28:51.145Z,997.80
2023-03-26T01:29:51.125Z,997.77
2023-03-26T06:01:08.130Z,993.84
2023-03-26T06:02:09.102Z,993.83
2023-03-26T06:03:09.204Z,993.84
2023-03-26T06:04:09.224Z,993.90
2023-03-26T06:05:09.045Z,993.99
2023-03-26T06:06:09.096Z,994.04
2023-03-26T06:07:09.024Z,994.04
2023-03-26T06:08:09.034Z,994.01
2023-03-26T06:09:09.013Z,993.96
2023-03-26T06:10:09.016Z,993.89
2023-03-26T06:11:08.991Z,993.86
2023-03-26T06:12:09.019Z,993.85
2023-03-26T06:13:08.979Z,993.85
2023-03-26T06:14:08.965Z,993.85
2023-03-26T06:15:08.970Z,993.84
2023-03-26T06:16:08.971Z,993.83
2023-03-26T06:17:08.990Z,993.82
2023-03-26T06:18:08.979Z,993.79
2023-03-26T06:19:08.946Z,993.78
2023-03-26T06:20:09.652Z,993.75
2023-03-26T06:21:08.886Z,993.74
2023-03-26T06:22:08.912Z,993.70
2023-03-26T06:23:08.896Z,993.67
2023-03-26T06:24:08.871Z,993.65
2023-03-26T06:25:08.839Z,993.62
2023-03-26T06:26:08.851Z,993.59
2023-03-26T06:27:08.836Z,993.56
2023-03-26T06:28:08.835Z,993.53
2023-03-26T06:29:08.814Z,993.49
2023-03-26T06:30:08.829Z,993.47
2023-03-26T06:31:08.811Z,993.46
2023-03-26T06:32:18.938Z,993.45
2023-03-26T06:33:08.784Z,993.43
2023-03-26T06:34:08.773Z,993.41
2023-03-26T06:35:08.779Z,993.39
2023-03-26T06:36:08.765Z,993.37
2023-03-26T06:37:08.732Z,993.36
2023-03-26T06:38:08.732Z,993.36
2023-03-26T06:39:08.729Z,993.33
2023-03-26T06:40:08.735Z,993.31
2023-03-26T06:41:08.683Z,993.29
2023-03-26T06:42:08.680Z,993.27
2023-03-26T06:43:10.922Z,993.24
2023-03-26T06:44:08.659Z,993.22
2023-03-26T06:45:08.677Z,993.22
2023-03-26T06:46:08.696Z,993.22
2023-03-26T06:47:08.616Z,993.21
2023-03-26T06:48:08.616Z,993.21
2023-03-26T06:49:08.602Z,993.19
2023-03-26T06:50:08.594Z,993.19
2023-03-26T06:51:08.578Z,993.20
2023-03-26T06:52:08.580Z,993.20
2023-03-26T06:53:08.548Z,993.20
2023-03-26T06:54:08.554Z,993.19
2023-03-26T06:55:08.552Z,993.18
2023-03-26T06:56:09.212Z,993.16
2023-03-26T06:57:08.574Z,993.16
2023-03-26T06:58:08.520Z,993.16
2023-03-26T06:59:08.483Z,993.17
2023-03-26T07:00:08.495Z,993.17
2023-03-26T07:01:08.578Z,993.17
2023-03-26T07:02:08.477Z,993.17
2023-03-26T07:03:08.448Z,993.18
2023-03-26T07:04:08.529Z,993.20
2023-03-26T07:05:08.418Z,993.21
2023-03-26T07:06:08.426Z,993.19
2023-03-26T07:07:08.416Z,993.19
2023-03-26T07:08:08.438Z,993.18
2023-03-26T07:09:08.387Z,993.18
2023-03-26T07:10:08.400Z,993.18
2023-03-26T07:11:08.386Z,993.17
2023-03-26T07:12:08.379Z,993.17
2023-03-26T07:13:08.341Z,993.18
2023-03-26T07:14:08.356Z,993.16
2023-03-26T07:15:08.330Z,993.15
2023-03-26T07:16:08.373Z,993.15
2023-03-26T07:17:08.310Z,993.14
2023-03-26T07:18:08.304Z,993.13
2023-03-26T07:19:08.305Z,993.11
2023-03-26T07:20:08.279Z,993.11
2023-03-26T07:21:08.268Z,993.09
2023-03-26T07:22:08.271Z,993.08
2023-03-26T07:23:08.237Z,993.06
2023-03-26T07:24:08.247Z,993.05
2023-03-26T07:25:08.216Z,993.02
2023-03-26T07:26:08.218Z,993.01
2023-03-26T07:27:08.214Z,993.01
2023-03-26T07:28:08.192Z,993.00
2023-03-26T07:29:08.171Z,992.98
2023-03-26T07:30:08.186Z,992.97
2023-03-26T07:31:08.168Z,992.97
2023-03-26T07:32:08.242Z,992.95
2023-03-26T07:33:08.133Z,992.94
2023-03-26T07:34:08.133Z,992.94
2023-03-26T07:35:08.108Z,992.94
2023-03-26T07:36:08.120Z,992.92
2023-03-26T07:37:08.102Z,992.90
2023-03-26T07:38:08.099Z,992.89
2023-03-26T07:39:08.070Z,992.85
2023-03-26T07:40:08.083Z,992.83
2023-03-26T07:41:08.038Z,992.82
2023-03-26T07:42:08.043Z,992.79
2023-03-26T07:43:08.057Z,992.79
2023-03-26T07:44:08.054Z,992.74
2023-03-26T07:45:08.009Z,992.72
2023-03-26T07:46:08.064Z,992.67
2023-03-26T07:47:08.000Z,992.66
2023-03-26T07:48:07.982Z,992.63
2023-03-26T07:49:07.948Z,992.62
2023-03-26T07:50:07.985Z,992.62
2023-03-26T07:51:07.962Z,992.62
2023-03-26T07:52:07.997Z,992.61
2023-03-26T07:53:07.912Z,992.59
2023-03-26T07:54:07.909Z,992.58
2023-03-26T07:55:07.935Z,992.57
2023-03-26T07:56:07.982Z,992.54
2023-03-26T07:57:07.978Z,992.52
2023-03-26T07:58:07.880Z,992.49
2023-03-26T07:59:07.858Z,992.45
2023-03-26T08:00:07.867Z,992.44
2023-03-26T08:01:07.847Z,992.42
2023-03-26T08:02:07.832Z,992.40
2023-03-26T08:03:07.963Z,992.38
2023-03-26T08:04:25.521Z,992.38
2023-03-26T08:05:07.880Z,992.36
2023-03-26T08:06:07.771Z,992.34
2023-03-26T08:07:07.790Z,992.32
2023-03-26T08:08:07.771Z,992.31
2023-03-26T08:09:07.825Z,992.32
2023-03-26T08:10:07.774Z,992.32
2023-03-26T08:11:07.735Z,992.31
2023-03-26T08:12:07.708Z,992.29
2023-03-26T08:13:07.719Z,992.29
2023-03-26T08:14:07.694Z,992.28
2023-03-26T08:15:07.748Z,992.25
2023-03-26T08:16:07.710Z,992.23
2023-03-26T08:17:07.797Z,992.22
2023-03-26T08:18:07.690Z,992.22
2023-03-26T08:19:07.644Z,992.24
2023-03-26T08:20:07.659Z,992.27
2023-03-26T08:21:07.654Z,992.27
2023-03-26T08:22:07.608Z,992.26
2023-03-26T08:23:07.617Z,992.25
2023-03-26T08:24:07.572Z,992.26
2023-03-26T08:25:07.602Z,992.26
2023-03-26T08:26:07.574Z,992.24
2023-03-26T08:27:07.594Z,992.23
2023-03-26T08:28:07.555Z,992.21
2023-03-26T08:29:07.551Z,992.21
2023-03-26T08:30:07.533Z,992.19
2023-03-26T08:31:07.550Z,992.18
2023-03-26T08:32:07.496Z,992.17
2023-03-26T08:33:07.567Z,992.17
2023-03-26T08:34:07.481Z,992.18
2023-03-26T08:35:07.508Z,992.18
2023-03-26T08:36:07.501Z,992.17
2023-03-26T08:37:07.471Z,992.16
2023-03-26T08:38:07.432Z,992.15
2023-03-26T08:39:07.462Z,992.15
2023-03-26T08:40:07.418Z,992.19
2023-03-26T08:41:07.426Z,992.20
2023-03-26T08:42:07.387Z,992.23
2023-03-26T08:43:07.399Z,992.25
2023-03-26T08:44:07.414Z,992.23
2023-03-26T08:45:07.394Z,992.23
2023-03-26T08:46:07.372Z,992.23
2023-03-26T08:47:07.356Z,992.23
2023-03-26T08:48:07.340Z,992.19
2023-03-26T08:49:07.341Z,992.20
2023-03-26T08:50:07.352Z,992.17
2023-03-26T08:51:07.343Z,992.16
2023-03-26T08:52:07.293Z,992.16
2023-03-26T08:53:07.303Z,992.17
2023-03-26T08:54:07.259Z,992.17
2023-03-26T08:55:07.313Z,992.20
2023-03-26T08:56:07.318Z,992.20
2023-03-26T08:57:07.290Z,992.19
2023-03-26T08:58:07.223Z,992.17
2023-03-26T08:59:07.227Z,992.16
2023-03-26T09:00:07.206Z,992.14
2023-03-26T09:01:07.231Z,992.11
2023-03-26T09:02:07.369Z,992.07
2023-03-26T09:03:07.204Z,992.01
2023-03-26T09:04:07.247Z,991.94
2023-03-26T09:05:07.188Z,991.85
2023-03-26T09:06:07.183Z,991.80
2023-03-26T09:07:07.166Z,991.80
2023-03-26T09:08:07.180Z,991.85
2023-03-26T09:09:07.106Z,991.88
2023-03-26T09:10:07.165Z,991.90
2023-03-26T09:11:07.168Z,991.91
2023-03-26T09:12:07.173Z,991.88
2023-03-26T09:13:07.105Z,991.88
2023-03-26T09:14:07.180Z,991.86
2023-03-26T09:15:07.062Z,991.88
2023-03-26T09:16:07.064Z,991.81
2023-03-26T09:17:07.042Z,991.80
2023-03-26T09:18:07.039Z,991.78
2023-03-26T09:19:07.050Z,991.77
2023-03-26T09:20:07.043Z,991.77
2023-03-26T09:21:06.985Z,991.79
2023-03-26T09:22:06.974Z,991.81
2023-03-26T09:23:06.975Z,991.84
2023-03-26T09:24:06.982Z,991.85
2023-03-26T09:25:06.965Z,991.86
2023-03-26T09:26:06.926Z,991.81
2023-03-26T09:27:06.932Z,991.81
2023-03-26T09:28:06.908Z,991.80
2023-03-26T09:29:06.946Z,991.75
2023-03-26T09:30:06.951Z,991.74
2023-03-26T09:31:06.957Z,991.74
2023-03-26T09:32:06.864Z,991.73
2023-03-26T09:33:06.918Z,991.74
2023-03-26T09:34:06.891Z,991.76
2023-03-26T09:35:06.863Z,991.75
2023-03-26T09:36:06.862Z,991.74
2023-03-26T09:37:06.858Z,991.76
2023-03-26T09:38:06.828Z,991.71
2023-03-26T09:39:06.809Z,991.67
2023-03-26T09:40:06.808Z,991.61
2023-03-26T09:41:06.808Z,991.59
2023-03-26T09:42:06.768Z,991.53
2023-03-26T09:43:06.756Z,991.49
2023-03-26T09:44:06.750Z,991.51
2023-03-26T09:45:06.772Z,991.51
2023-03-26T09:46:06.765Z,991.48
2023-03-26T09:47:06.777Z,991.50
2023-03-26T09:48:06.726Z,991.49
2023-03-26T09:49:06.736Z,991.51
2023-03-26T09:50:06.677Z,991.51
2023-03-26T09:51:06.684Z,991.48
2023-03-26T09:52:06.669Z,991.43
2023-03-26T09:53:06.702Z,991.40
2023-03-26T09:54:06.662Z,991.39
2023-03-26T09:55:06.624Z,991.38
2023-03-26T09:56:06.623Z,991.38
2023-03-26T09:57:06.706Z,991.42
2023-03-26T09:58:06.603Z,991.42
2023-03-26T09:59:06.617Z,991.40
2023-03-26T10:00:06.583Z,991.41
2023-03-26T10:01:06.611Z,991.44
2023-03-26T10:02:06.544Z,991.43
2023-03-26T10:03:06.616Z,991.40
2023-03-26T10:04:06.529Z,991.40
2023-03-26T10:05:06.592Z,991.39
2023-03-26T10:06:06.501Z,991.40
2023-03-26T10:07:06.524Z,991.40
2023-03-26T10:08:06.477Z,991.39
2023-03-26T10:09:06.507Z,991.38
2023-03-26T10:10:06.476Z,991.37
2023-03-26T10:11:06.481Z,991.35
2023-03-26T10:12:06.513Z,991.32
2023-03-26T10:13:14.529Z,991.32
2023-03-26T10:14:06.422Z,991.34
2023-03-26T10:15:06.436Z,991.32
2023-03-26T10:16:06.442Z,991.31
2023-03-26T10:17:06.566Z,991.30
2023-03-26T10:18:28.258Z,991.27
2023-03-26T10:19:06.376Z,991.27
2023-03-26T10:20:06.372Z,991.31
2023-03-26T10:21:06.367Z,991.26
2023-03-26T10:22:06.373Z,991.28
2023-03-26T10:23:06.347Z,991.26
2023-03-26T10:24:06.307Z,991.25
2023-03-26T10:25:06.320Z,991.23
2023-03-26T10:26:06.292Z,991.18
2023-03-26T10:27:10.386Z,991.17
2023-03-26T10:28:06.306Z,991.14
2023-03-26T10:29:06.287Z,991.12
2023-03-26T10:30:06.280Z,991.11
2023-03-26T10:31:06.320Z,991.09
2023-03-26T10:32:06.284Z,991.09
2023-03-26T10:33:06.253Z,991.08
2023-03-26T10:34:06.326Z,991.05
2023-03-26T10:35:06.245Z,991.02
2023-03-26T10:36:06.247Z,991.01
2023-03-26T10:37:06.201Z,991.04
2023-03-26T10:38:06.162Z,990.98
2023-03-26T10:39:06.170Z,990.96
2023-03-26T10:40:06.226Z,990.93
2023-03-26T10:41:06.163Z,990.94
2023-03-26T10:42:06.128Z,990.94
2023-03-26T10:43:06.134Z,990.92
2023-03-26T10:44:08.806Z,990.89
2023-03-26T10:45:07.424Z,990.87
2023-03-26T10:46:06.194Z,990.90
2023-03-26T10:47:06.078Z,990.88
2023-03-26T10:48:06.067Z,990.82
2023-03-26T10:49:06.060Z,990.80
2023-03-26T10:50:06.049Z,990.83
2023-03-26T10:51:06.039Z,990.89
2023-03-26T10:52:06.029Z,990.92
2023-03-26T10:53:06.042Z,990.89
2023-03-26T10:54:05.994Z,990.85
2023-03-26T10:55:06.052Z,990.82
2023-03-26T10:56:05.973Z,990.75
2023-03-26T10:57:06.129Z,990.77
2023-03-26T10:58:05.959Z,990.76
2023-03-26T10:59:05.943Z,990.81
2023-03-26T11:00:05.942Z,990.78
2023-03-26T11:01:06.326Z,990.75
2023-03-26T11:02:05.932Z,990.71
2023-03-26T11:03:05.935Z,990.69
2023-03-26T11:04:05.907Z,990.68
2023-03-26T11:05:05.940Z,990.65
2023-03-26T11:06:05.877Z,990.66
2023-03-26T11:07:05.885Z,990.67
2023-03-26T11:08:05.887Z,990.68
2023-03-26T11:09:05.875Z,990.65
2023-03-26T11:10:05.846Z,990.66
2023-03-26T11:11:05.827Z,990.62
2023-03-26T11:12:25.740Z,990.62
2023-03-26T11:13:05.808Z,990.59
2023-03-26T11:14:05.831Z,990.56
2023-03-26T11:15:05.817Z,990.53
2023-03-26T11:16:05.844Z,990.52
2023-03-26T11:17:05.796Z,990.52
2023-03-26T11:18:05.780Z,990.51
2023-03-26T11:19:05.838Z,990.51
2023-03-26T11:20:05.760Z,990.50
2023-03-26T11:21:18.923Z,990.53
2023-03-26T11:22:05.705Z,990.55
2023-03-26T11:23:05.723Z,990.54
2023-03-26T11:24:06.522Z,990.52
2023-03-26T11:25:05.798Z,990.52
2023-03-26T11:26:05.690Z,990.50
2023-03-26T11:27:15.728Z,990.48
2023-03-26T11:28:05.682Z,990.49
2023-03-26T11:29:31.555Z,990.51
2023-03-26T11:30:05.636Z,990.52
2023-03-26T11:31:05.683Z,990.53
2023-03-26T11:32:05.630Z,990.58
2023-03-26T11:33:05.597Z,990.61
2023-03-26T11:34:05.632Z,990.60
2023-03-26T11:35:05.569Z,990.60
2023-03-26T11:36:05.608Z,990.60
2023-03-26T11:37:05.556Z,990.63
2023-03-26T11:38:05.548Z,990.64
2023-03-26T11:39:05.548Z,990.63
2023-03-26T11:40:05.597Z,990.61
2023-03-26T11:41:05.524Z,990.61
2023-03-26T11:42:05.493Z,990.61
2023-03-26T11:43:05.496Z,990.63
2023-03-26T11:44:05.541Z,990.61
2023-03-26T11:45:05.500Z,990.61
2023-03-26T11:46:05.531Z,990.64
2023-03-26T11:47:05.435Z,990.59
2023-03-26T11:48:05.501Z,990.52
2023-03-26T11:49:05.448Z,990.52
2023-03-26T11:50:05.465Z,990.57
2023-03-26T11:51:05.430Z,990.55
2023-03-26T11:52:05.420Z,990.55
2023-03-26T11:53:05.380Z,990.54
2023-03-26T11:54:05.366Z,990.50
2023-03-26T11:55:05.378Z,990.45
2023-03-26T11:56:05.547Z,990.43
2023-03-26T11:57:07.262Z,990.40
2023-03-26T11:58:05.325Z,990.37
2023-03-26T11:59:05.339Z,990.35
2023-03-26T12:00:05.335Z,990.34
2023-03-26T12:01:05.289Z,990.31
2023-03-26T12:02:05.341Z,990.28
2023-03-26T12:03:05.375Z,990.28
2023-03-26T12:04:05.358Z,990.27
2023-03-26T12:05:05.261Z,990.30
2023-03-26T12:06:05.224Z,990.30
2023-03-26T12:07:05.233Z,990.34
2023-03-26T12:08:05.253Z,990.33
2023-03-26T12:09:05.248Z,990.34
2023-03-26T12:10:17.983Z,990.35
2023-03-26T12:11:05.183Z,990.30
2023-03-26T12:12:05.308Z,990.24
2023-03-26T12:13:05.202Z,990.19
2023-03-26T12:14:05.137Z,990.17
2023-03-26T12:15:05.159Z,990.12
2023-03-26T12:16:05.119Z,990.16
2023-03-26T12:17:05.136Z,990.15
2023-03-26T12:18:05.159Z,990.14
2023-03-26T12:19:05.590Z,990.12
2023-03-26T12:20:05.099Z,990.12
2023-03-26T12:21:05.093Z,990.14
2023-03-26T12:22:05.121Z,990.14
2023-03-26T12:23:05.049Z,990.13
2023-03-26T12:24:05.074Z,990.11
2023-03-26T12:25:05.028Z,990.09
2023-03-26T12:26:05.027Z,990.11
2023-03-26T12:27:04.999Z,990.15
2023-03-26T12:28:05.265Z,990.12
2023-03-26T12:29:04.996Z,990.11
2023-03-26T12:30:05.016Z,990.08
2023-03-26T12:31:04.971Z,990.07
2023-03-26T12:32:05.066Z,990.02
2023-03-26T12:33:04.996Z,990.03
2023-03-26T12:34:05.044Z,989.96
2023-03-26T12:35:04.914Z,989.99
2023-03-26T12:36:04.969Z,989.98
2023-03-26T12:37:04.946Z,989.98
2023-03-26T12:38:04.916Z,989.96
2023-03-26T12:39:43.047Z,989.96
2023-03-26T12:40:19.390Z,989.96
2023-03-26T12:41:04.855Z,989.94
2023-03-26T12:43:51.548Z,989.97
2023-03-26T12:45:02.388Z,989.97
2023-03-26T12:45:07.816Z,989.96
2023-03-26T12:47:54.502Z,989.93
2023-03-26T12:48:07.315Z,989.93
2023-03-26T12:48:12.882Z,989.92
2023-03-26T12:49:12.909Z,989.93
2023-03-26T12:50:12.774Z,989.91
2023-03-26T12:51:12.732Z,989.87
2023-03-26T12:52:12.775Z,989.81
2023-03-26T12:53:12.722Z,989.76
2023-03-26T12:54:12.699Z,989.77
2023-03-26T12:55:12.742Z,989.76
2023-03-26T12:56:12.714Z,989.72
2023-03-26T12:57:13.380Z,989.66
2023-03-26T12:58:13.738Z,989.62
2023-03-26T12:59:12.649Z,989.59
2023-03-26T13:00:12.653Z,989.57
2023-03-26T13:01:12.691Z,989.56
2023-03-26T13:02:12.662Z,989.57
2023-03-26T13:03:12.755Z,989.57
2023-03-26T13:04:12.625Z,989.59
2023-03-26T13:05:12.617Z,989.60
2023-03-26T13:06:12.571Z,989.63
2023-03-26T13:07:12.582Z,989.63
2023-03-26T13:08:12.544Z,989.63
2023-03-26T13:09:12.622Z,989.64
2023-03-26T13:10:12.535Z,989.66
2023-03-26T13:11:12.553Z,989.66
2023-03-26T13:12:12.517Z,989.69
2023-03-26T13:13:12.557Z,989.72
2023-03-26T13:14:12.490Z,989.70
2023-03-26T13:15:12.485Z,989.78
2023-03-26T13:16:12.557Z,989.79
2023-03-26T13:17:12.537Z,989.67
2023-03-26T13:18:12.457Z,989.72
2023-03-26T13:19:12.466Z,989.72
2023-03-26T13:20:12.605Z,989.55
2023-03-26T13:21:12.415Z,989.57
2023-03-26T13:22:12.402Z,989.52
2023-03-26T13:23:12.408Z,989.59
2023-03-26T13:24:12.447Z,989.57
2023-03-26T13:25:12.370Z,989.51
2023-03-26T13:26:12.364Z,989.54
2023-03-26T13:27:12.374Z,989.49
2023-03-26T13:28:12.368Z,989.48
2023-03-26T13:29:12.798Z,989.47
2023-03-26T13:30:12.344Z,989.47
2023-03-26T13:31:12.384Z,989.46
2023-03-26T13:32:12.318Z,989.41
2023-03-26T13:33:12.664Z,989.38
2023-03-26T13:34:12.274Z,989.34
2023-03-26T13:35:12.368Z,989.33
2023-03-26T13:36:23.114Z,989.32
2023-03-26T13:37:12.325Z,989.30
2023-03-26T13:38:12.235Z,989.29
2023-03-26T13:39:12.264Z,989.32
2023-03-26T13:40:12.227Z,989.23
2023-03-26T13:41:12.267Z,989.24
2023-03-26T13:42:12.192Z,989.33
2023-03-26T13:43:12.187Z,989.29
2023-03-26T13:44:12.172Z,989.29
2023-03-26T13:45:12.169Z,989.31
2023-03-26T13:46:12.232Z,989.34
2023-03-26T13:47:12.182Z,989.32
2023-03-26T13:48:12.122Z,989.31
2023-03-26T13:49:12.141Z,989.24
2023-03-26T13:50:12.111Z,989.16
2023-03-26T13:51:12.101Z,989.21
2023-03-26T13:52:12.206Z,989.17
2023-03-26T13:53:18.101Z,989.17
2023-03-26T13:54:18.091Z,989.18
2023-03-26T13:55:18.069Z,989.21
2023-03-26T13:56:18.040Z,989.21
2023-03-26T13:57:12.086Z,989.22
2023-03-26T13:59:04.908Z,989.25
2023-03-26T14:00:05.919Z,989.38
2023-03-26T14:01:05.881Z,989.57
2023-03-26T14:02:05.936Z,989.53
2023-03-26T14:03:05.895Z,989.51
2023-03-26T14:04:05.917Z,989.43
2023-03-26T14:05:05.839Z,989.45
2023-03-26T14:06:05.834Z,989.38
2023-03-26T14:07:05.824Z,989.39
2023-03-26T14:08:05.848Z,989.35
2023-03-26T14:09:05.792Z,989.27
2023-03-26T14:10:05.876Z,989.26
2023-03-26T14:11:05.791Z,989.24
2023-03-26T14:12:05.761Z,989.20
2023-03-26T14:13:06.164Z,989.18
2023-03-26T14:14:05.772Z,989.18
2023-03-26T14:15:05.720Z,989.22
2023-03-26T14:16:05.769Z,989.26
2023-03-26T14:17:05.697Z,989.26
2023-03-26T14:18:05.749Z,989.23
2023-03-26T14:19:05.703Z,989.23
2023-03-26T14:20:05.691Z,989.22
2023-03-26T14:21:05.662Z,989.15
2023-03-26T14:22:05.772Z,989.18
2023-03-26T14:23:05.635Z,989.19
2023-03-26T14:24:05.718Z,989.14
2023-03-26T14:25:05.611Z,989.16
2023-03-26T14:26:05.623Z,989.12
2023-03-26T14:27:05.596Z,989.14
2023-03-26T14:28:05.605Z,989.11
2023-03-26T14:29:05.633Z,989.07
2023-03-26T14:30:05.619Z,989.03
2023-03-26T14:31:05.571Z,989.10
2023-03-26T14:32:05.586Z,989.09
2023-03-26T14:33:05.562Z,989.09
2023-03-26T14:34:05.680Z,989.06
2023-03-26T14:35:05.517Z,989.08
2023-03-26T14:36:05.552Z,989.14
2023-03-26T14:37:05.479Z,989.10
2023-03-26T14:38:05.494Z,989.20
2023-03-26T14:39:05.472Z,989.10
2023-03-26T14:40:05.492Z,989.11
2023-03-26T14:41:05.452Z,989.09
2023-03-26T14:42:05.460Z,989.08
2023-03-26T14:43:05.426Z,989.04
2023-03-26T14:44:05.453Z,989.12
2023-03-26T14:45:05.391Z,989.05
2023-03-26T14:46:05.517Z,989.04
2023-03-26T14:47:06.364Z,988.98
2023-03-26T14:48:07.826Z,988.97
2023-03-26T14:49:05.358Z,988.94
2023-03-26T14:50:05.368Z,988.91
2023-03-26T14:51:05.374Z,988.91
2023-03-26T14:52:05.351Z,988.87
2023-03-26T14:53:05.330Z,988.91
2023-03-26T14:54:05.339Z,988.88
2023-03-26T14:55:05.330Z,988.84
2023-03-26T14:56:05.282Z,988.84
2023-03-26T14:57:05.325Z,988.84
2023-03-26T14:58:05.299Z,988.82
2023-03-26T14:59:05.270Z,988.78
2023-03-26T15:00:05.232Z,988.92
2023-03-26T15:01:05.270Z,988.75
2023-03-26T15:02:05.242Z,988.75
2023-03-26T15:03:05.360Z,988.74
2023-03-26T15:04:05.203Z,988.71
2023-03-26T15:05:05.212Z,988.67
2023-03-26T15:06:05.193Z,988.69
2023-03-26T15:07:05.200Z,988.71
2023-03-26T15:08:05.173Z,988.66
2023-03-26T15:09:05.169Z,988.70
2023-03-26T15:10:05.998Z,988.59
2023-03-26T15:11:05.160Z,988.64
2023-03-26T15:12:12.141Z,988.64
2023-03-26T15:13:05.122Z,988.60
2023-03-26T15:14:05.116Z,988.59
2023-03-26T15:15:05.123Z,988.60
2023-03-26T15:16:05.161Z,988.62
2023-03-26T15:17:05.097Z,988.64
2023-03-26T15:18:05.052Z,988.62
2023-03-26T15:19:05.215Z,988.65
2023-03-26T15:20:05.051Z,988.61
2023-03-26T15:21:05.050Z,988.58
2023-03-26T15:22:05.026Z,988.56
2023-03-26T15:23:05.009Z,988.53
2023-03-26T15:24:05.005Z,988.56
2023-03-26T15:25:04.980Z,988.62
2023-03-26T15:26:04.995Z,988.56
2023-03-26T15:27:05.102Z,988.52
2023-03-26T15:28:04.940Z,988.51
2023-03-26T15:29:04.963Z,988.55
2023-03-26T15:30:04.920Z,988.53
2023-03-26T15:31:04.988Z,988.55
2023-03-26T15:32:05.024Z,988.62
2023-03-26T15:33:04.953Z,988.63
2023-03-26T15:34:04.913Z,988.67
2023-03-26T15:35:04.886Z,988.68
2023-03-26T15:36:04.889Z,988.66
2023-03-26T15:37:04.867Z,988.74
2023-03-26T15:38:04.870Z,988.68
2023-03-26T15:39:04.853Z,988.78
2023-03-26T15:40:04.853Z,988.76
2023-03-26T15:41:04.816Z,988.81
2023-03-26T15:42:04.800Z,988.86
2023-03-26T15:43:04.811Z,988.84
2023-03-26T15:44:24.814Z,988.98
2023-03-26T15:45:04.853Z,988.93
2023-03-26T15:46:04.784Z,989.01
2023-03-26T15:47:04.809Z,989.03
2023-03-26T15:48:04.875Z,989.09
2023-03-26T15:49:04.882Z,989.42
2023-03-26T15:50:04.730Z,989.22
2023-03-26T15:51:04.741Z,989.37
2023-03-26T15:52:04.707Z,989.42
2023-03-26T15:53:04.732Z,989.69
2023-03-26T15:54:04.725Z,989.85
2023-03-26T15:55:04.705Z,990.05
2023-03-26T15:56:04.689Z,989.97
2023-03-26T15:57:04.682Z,990.05
2023-03-26T15:58:04.630Z,990.17
2023-03-26T15:59:04.650Z,990.13
2023-03-26T16:00:04.614Z,990.36
2023-03-26T16:01:04.652Z,990.08
2023-03-26T16:02:04.605Z,990.20
2023-03-26T16:03:04.605Z,990.25
2023-03-26T16:04:04.576Z,990.34
2023-03-26T16:05:04.595Z,990.21
2023-03-26T16:06:04.542Z,990.38
2023-03-26T16:07:04.543Z,990.22
2023-03-26T16:08:04.546Z,990.18
2023-03-26T16:09:04.508Z,990.22
2023-03-26T16:10:04.559Z,990.21
2023-03-26T16:11:04.504Z,990.18
2023-03-26T16:12:04.468Z,990.23
2023-03-26T16:13:04.476Z,990.17
2023-03-26T16:14:04.483Z,990.09
2023-03-26T16:15:04.451Z,990.04
2023-03-26T16:16:04.574Z,989.90
2023-03-26T16:17:04.480Z,989.81
2023-03-26T16:18:04.435Z,989.78
2023-03-26T16:19:04.440Z,989.79
2023-03-26T16:20:04.384Z,989.83
2023-03-26T16:21:04.479Z,989.84
2023-03-26T16:22:04.407Z,989.88
2023-03-26T16:23:04.378Z,989.85
2023-03-26T16:24:04.346Z,989.83
2023-03-26T16:25:26.503Z,989.87
2023-03-26T16:26:04.338Z,989.89
2023-03-26T16:27:04.322Z,989.89
2023-03-26T16:28:04.302Z,989.97
2023-03-26T16:29:04.297Z,989.99
2023-03-26T16:30:04.276Z,990.01
2023-03-26T16:31:04.441Z,990.08
2023-03-26T16:32:04.368Z,990.06
2023-03-26T16:33:04.327Z,990.08
2023-03-26T16:34:04.237Z,990.10
2023-03-26T16:35:04.267Z,990.12
2023-03-26T16:36:04.281Z,990.14
2023-03-26T16:37:04.311Z,990.14
2023-03-26T16:38:04.197Z,990.17
2023-03-26T16:39:04.236Z,990.21
2023-03-26T16:40:04.176Z,990.22
2023-03-26T16:41:04.182Z,990.23
2023-03-26T16:42:06.121Z,990.22
2023-03-26T16:43:04.179Z,990.25
2023-03-26T16:44:04.129Z,990.26
2023-03-26T16:45:04.146Z,990.27
2023-03-26T16:46:04.275Z,990.26
2023-03-26T16:47:04.146Z,990.25
2023-03-26T16:48:04.145Z,990.25
2023-03-26T16:49:04.118Z,990.24
2023-03-26T16:50:08.487Z,990.24
2023-03-26T16:51:04.106Z,990.25
2023-03-26T16:52:04.077Z,990.24
2023-03-26T16:53:04.196Z,990.25
2023-03-26T16:54:04.028Z,990.28
2023-03-26T16:55:04.065Z,990.26
2023-03-26T16:56:04.017Z,990.25
2023-03-26T16:57:04.090Z,990.23
2023-03-26T16:58:04.033Z,990.24
2023-03-26T16:59:03.994Z,990.22
2023-03-26T17:00:06.387Z,990.22
2023-03-26T17:01:03.999Z,990.21